Main page
METAR-TAF:

Airports :

Maputo, Mozambique

Maputo International Airport

latitude: 25-55S, longitude: 032-34E, elevation: 39 m

Current weather observation

The report was made 44 minutes ago, at 06:00 UTC
Wind 5 kt from the South/Southwest
Temperature 17°C
Humidity 100%
Pressure 1024 hPa
Visibility 10 km or more
Scattered clouds at a height of 2500 ft

METAR: FQMA 300600Z 21005KT 9999 SCT025 17/17 Q1024 NOSIG

Time: 08:44 (06:44 UTC)

Forecast

The report was made 2 hours and 44 minutes ago, at 04:00 UTC
Forecast valid from 30 at 06 UTC to 31 at 12 UTC
Wind 6 kt from the Southwest
Visibility 10 km or more
Scattered clouds at a height of 2500 ft
Becoming
from 30 at 12 UTC to 30 at 14 UTC
Wind 8 kt from the East/Southeast
Broken clouds at a height of 2000 ft
Becoming
from 31 at 00 UTC to 31 at 02 UTC
Wind 10 kt from the Southwest

TAF: FQMA 300400Z 3006/3112 22006KT 9999 SCT025 BECMG 3012/3014 12008KT BKN020 BECMG 3100/3102 22010KT TN15/3103ZTX25/3012Z

METAR-TAF

Weather observations and forecasts of more than 4000 airports (METAR and TAF reports).

The available stations are represented by yellow and red dots on the map.

Hover mouse over dot to see the name of the station.

Then click to see weather observations and forecasts.

To change the map : click on the green buttons with a black cross to zoom in, on the green button with a dash to zoom out, or on the green arrows for adjacent maps.


METAR-TAF: